Saint Johnsbury, VT (05819)

2:26 AM EST on February 08, 2016 (GMT -0500)
APRSWXNET | | Change Station
CLOSE
Current Station
Personal Weather Station
Location: Lower Waterford, VT
Elevation: 807 ft
Nearby Weather Stations

Elev 807 ft 44.35 °N, 71.91 °W | Updated 23 minutes ago

Clear
Clear
23 °F
Feels Like 23 °F
N
0
Wind Variable Wind from SE
Gusts 0.0 mph

Today
High -- | Low -- °F
--% Chance of Precip.
Yesterday
High -- | Low -- °F
Precip. -- in
Pressure 30.01 in
Visibility 10.0 miles
Clouds Clear
Windchill 23 °F
Dew Point 20 °F
Humidity 88%
Rainfall in
Snow Depth Not available.
6:58 AM 5:06 PM
Waning Crescent, 0% visible
METAR KCDA 080715Z AUTO 00000KT 10SM CLR M07/M09 A3001 RMK AO2 T10661089
Pressure 30.01 in
Visibility 10.0 miles
Clouds Clear
Windchill 23 °F
Dew Point 20 °F
Humidity 88%
Rainfall in
Snow Depth Not available.
6:58 AM 5:06 PM
Waning Crescent, 0% visible
METAR KCDA 080715Z AUTO 00000KT 10SM CLR M07/M09 A3001 RMK AO2 T10661089

10-Day Weather Forecast

Almanac

Astronomy

Feb. 08, 2016 Rise Set
Actual Time
Civil Twilight
Nautical Twilight
Astronomical Twilight
Moon
Length of Visible Light
Length of Day
Tomorrow will be .
, % of the Moon is Illuminated

Today's Extremes

State Highs State Lows

Community

WunderPhotos

Upload Photos

1,891,394 photos uploaded!

WunderBlog® & News

Nearby

Air Quality

  Air Quality AQ Index Pollutant
Not available.

Snow Depth

Station Depth Elevation

Earthquake Activity

City Distance Mag. Time & Date
Minimum magnitude displayed is 2.5.

Coastal Water Temperatures

Place Temperature

Stations

Nearby Weather Stations

Station Location Temp. Windchill Dew Point Humidity Wind Precip. Elev Updated Type
                   

Watches & Warnings

There are currently no watches in effect.